createdAt,value
2022-09-01T00:00:33.749Z,14.50
2022-09-01T00:01:33.740Z,14.47
2022-09-01T00:02:33.976Z,14.44
2022-09-01T00:03:33.706Z,14.43
2022-09-01T00:04:33.808Z,14.44
2022-09-01T00:05:33.708Z,14.42
2022-09-01T00:06:33.740Z,14.39
2022-09-01T00:07:33.692Z,14.43
2022-09-01T00:08:33.667Z,14.43
2022-09-01T00:09:33.673Z,14.44
2022-09-01T00:10:33.650Z,14.43
2022-09-01T00:11:33.635Z,14.38
2022-09-01T00:12:33.636Z,14.37
2022-09-01T00:13:33.619Z,14.37
2022-09-01T00:14:33.606Z,14.35
2022-09-01T00:15:33.658Z,14.35
2022-09-01T00:16:33.618Z,14.35
2022-09-01T00:17:33.612Z,14.37
2022-09-01T00:18:33.598Z,14.38
2022-09-01T00:19:33.590Z,14.38
2022-09-01T00:20:33.546Z,14.39
2022-09-01T00:21:33.544Z,14.42
2022-09-01T00:22:33.552Z,14.39
2022-09-01T00:23:33.525Z,14.42
2022-09-01T00:24:33.513Z,14.42
2022-09-01T00:25:33.530Z,14.43
2022-09-01T00:26:33.517Z,14.44
2022-09-01T00:27:33.517Z,14.46
2022-09-01T00:28:33.476Z,14.43
2022-09-01T00:29:33.479Z,14.42
2022-09-01T00:30:33.479Z,14.38
2022-09-01T00:31:33.506Z,14.38
2022-09-01T00:32:33.478Z,14.37
2022-09-01T00:33:33.458Z,14.35
2022-09-01T00:34:33.439Z,14.34
2022-09-01T00:35:37.418Z,14.34
2022-09-01T00:36:33.425Z,14.32
2022-09-01T00:37:33.400Z,14.32
2022-09-01T00:38:33.394Z,14.32
2022-09-01T00:39:33.399Z,14.35
2022-09-01T00:40:33.440Z,14.35
2022-09-01T00:41:33.379Z,14.38
2022-09-01T00:42:33.359Z,14.38
2022-09-01T00:43:33.350Z,14.43
2022-09-01T00:44:33.353Z,14.42
2022-09-01T00:45:33.367Z,14.42
2022-09-01T00:46:33.402Z,14.43
2022-09-01T00:47:33.316Z,14.43
2022-09-01T00:48:33.295Z,14.43
2022-09-01T00:49:35.208Z,14.44
2022-09-01T00:50:33.293Z,14.46
2022-09-01T00:51:33.271Z,14.49
2022-09-01T00:52:33.269Z,14.50
2022-09-01T00:53:41.291Z,14.52
2022-09-01T00:54:33.236Z,14.52
2022-09-01T00:55:33.238Z,14.52
2022-09-01T00:56:41.781Z,14.54
2022-09-01T00:57:33.257Z,14.53
2022-09-01T00:58:33.226Z,14.53
2022-09-01T00:59:33.198Z,14.53
2022-09-01T01:00:33.181Z,14.53
2022-09-01T01:01:33.931Z,14.53
2022-09-01T01:04:22.210Z,14.54
2022-09-01T01:05:22.285Z,14.54
2022-09-01T01:06:22.541Z,14.53
2022-09-01T01:07:24.123Z,14.54
2022-09-01T01:08:24.912Z,14.52
2022-09-01T01:09:22.284Z,14.50
2022-09-01T01:10:22.264Z,14.50
2022-09-01T01:11:24.026Z,14.50
2022-09-01T01:12:22.283Z,14.50
2022-09-01T01:13:22.287Z,14.50
2022-09-01T01:14:22.223Z,14.49
2022-09-01T01:15:22.268Z,14.50
2022-09-01T01:16:22.275Z,14.50
2022-09-01T01:17:22.224Z,14.49
2022-09-01T01:18:23.360Z,14.50
2022-09-01T01:19:22.189Z,14.52
2022-09-01T01:20:22.191Z,14.49
2022-09-01T01:21:22.170Z,14.47
2022-09-01T01:22:22.179Z,14.44
2022-09-01T01:23:22.151Z,14.46
2022-09-01T01:24:22.146Z,14.44
2022-09-01T01:25:22.144Z,14.44
2022-09-01T01:26:22.130Z,14.47
2022-09-01T01:27:22.130Z,14.47
2022-09-01T01:28:22.527Z,14.47
2022-09-01T01:29:23.065Z,14.46
2022-09-01T01:30:22.086Z,14.47
2022-09-01T01:31:22.173Z,14.49
2022-09-01T01:32:22.066Z,14.49
2022-09-01T01:33:22.077Z,14.49
2022-09-01T01:34:22.042Z,14.49
2022-09-01T01:35:22.064Z,14.50
2022-09-01T01:36:22.059Z,14.50
2022-09-01T01:37:22.046Z,14.49
2022-09-01T01:38:22.016Z,14.46
2022-09-01T01:39:22.024Z,14.46
2022-09-01T01:40:22.051Z,14.46
2022-09-01T01:41:22.014Z,14.47
2022-09-01T01:42:21.978Z,14.46
2022-09-01T01:43:22.033Z,14.46
2022-09-01T01:44:21.961Z,14.46
2022-09-01T01:45:21.942Z,14.46
2022-09-01T01:46:22.049Z,14.46
2022-09-01T01:47:21.946Z,14.43
2022-09-01T01:48:21.932Z,14.42
2022-09-01T01:49:21.903Z,14.43
2022-09-01T01:50:21.907Z,14.42
2022-09-01T01:51:21.882Z,14.39
2022-09-01T01:52:21.900Z,14.39
2022-09-01T01:53:21.878Z,14.39
2022-09-01T01:54:21.872Z,14.38
2022-09-01T01:55:21.867Z,14.35
2022-09-01T01:56:21.838Z,14.35
2022-09-01T01:57:21.883Z,14.37
2022-09-01T01:58:22.105Z,14.35
2022-09-01T01:59:21.810Z,14.35
2022-09-01T02:00:26.148Z,14.34
2022-09-01T02:01:21.956Z,14.31
2022-09-01T02:02:21.923Z,14.31
2022-09-01T02:03:21.834Z,14.29
2022-09-01T02:04:21.800Z,14.31
2022-09-01T02:05:21.791Z,14.29
2022-09-01T02:06:21.772Z,14.28
2022-09-01T02:07:21.792Z,14.29
2022-09-01T02:08:21.746Z,14.29
2022-09-01T02:09:21.742Z,14.29
2022-09-01T02:10:21.730Z,14.29
2022-09-01T02:11:21.739Z,14.31
2022-09-01T02:12:21.709Z,14.32
2022-09-01T02:13:21.712Z,14.32
2022-09-01T02:14:21.698Z,14.31
2022-09-01T02:15:21.692Z,14.32
2022-09-01T02:16:21.712Z,14.34
2022-09-01T02:17:21.688Z,14.34
2022-09-01T02:18:22.019Z,14.32
2022-09-01T02:19:21.671Z,14.31
2022-09-01T02:20:21.643Z,14.32
2022-09-01T02:21:21.643Z,14.31
2022-09-01T02:22:21.663Z,14.32
2022-09-01T02:23:21.619Z,14.31
2022-09-01T02:24:21.629Z,14.29
2022-09-01T02:25:21.597Z,14.31
2022-09-01T02:26:21.608Z,14.31
2022-09-01T02:27:21.589Z,14.31
2022-09-01T02:28:21.575Z,14.32
2022-09-01T02:29:21.568Z,14.31
2022-09-01T02:30:21.561Z,14.32
2022-09-01T02:31:21.562Z,14.32
2022-09-01T02:32:21.539Z,14.29
2022-09-01T02:33:21.533Z,14.31
2022-09-01T02:34:21.521Z,14.29
2022-09-01T02:35:21.510Z,14.29
2022-09-01T02:36:21.482Z,14.32
2022-09-01T02:37:21.471Z,14.31
2022-09-01T02:38:21.496Z,14.32
2022-09-01T02:39:21.461Z,14.32
2022-09-01T02:40:21.510Z,14.32
2022-09-01T02:41:21.439Z,14.32
2022-09-01T02:42:21.431Z,14.32
2022-09-01T02:43:21.428Z,14.32
2022-09-01T02:44:21.409Z,14.32
2022-09-01T02:45:21.420Z,14.32
2022-09-01T02:46:21.514Z,14.34
2022-09-01T02:47:21.405Z,14.34
2022-09-01T02:48:21.527Z,14.32
2022-09-01T02:49:21.363Z,14.34
2022-09-01T02:50:21.377Z,14.34
2022-09-01T02:51:21.367Z,14.37
2022-09-01T02:52:21.350Z,14.37
2022-09-01T02:53:21.350Z,14.35
2022-09-01T02:54:21.339Z,14.35
2022-09-01T02:55:21.311Z,14.35
2022-09-01T02:56:21.316Z,14.35
2022-09-01T02:57:21.314Z,14.35
2022-09-01T02:58:21.432Z,14.34
2022-09-01T02:59:21.315Z,14.35
2022-09-01T03:00:21.307Z,14.35
2022-09-01T03:01:21.356Z,14.37
2022-09-01T03:02:21.285Z,14.35
2022-09-01T03:03:21.314Z,14.32
2022-09-01T03:04:21.302Z,14.31
2022-09-01T03:05:21.250Z,14.31
2022-09-01T03:06:21.244Z,14.31
2022-09-01T03:07:21.230Z,14.29
2022-09-01T03:08:21.363Z,14.28
2022-09-01T03:09:21.211Z,14.28
2022-09-01T03:10:21.212Z,14.28
2022-09-01T03:11:21.201Z,14.25
2022-09-01T03:12:21.198Z,14.25
2022-09-01T03:13:21.180Z,14.25
2022-09-01T03:14:21.166Z,14.25
2022-09-01T03:15:21.160Z,14.25
2022-09-01T03:16:21.203Z,14.21
2022-09-01T03:17:21.150Z,14.21
2022-09-01T03:18:21.402Z,14.21
2022-09-01T03:19:21.161Z,14.21
2022-09-01T03:20:21.129Z,14.24
2022-09-01T03:21:21.112Z,14.25
2022-09-01T03:22:22.784Z,14.25
2022-09-01T03:23:21.100Z,14.25
2022-09-01T03:24:21.093Z,14.24
2022-09-01T03:25:21.086Z,14.24
2022-09-01T03:26:21.061Z,14.24
2022-09-01T03:27:21.059Z,14.24
2022-09-01T03:28:21.122Z,14.27
2022-09-01T03:29:30.591Z,14.27
2022-09-01T03:30:21.020Z,14.27
2022-09-01T03:31:21.143Z,14.24
2022-09-01T03:32:21.066Z,14.24
2022-09-01T03:33:21.012Z,14.24
2022-09-01T03:34:21.010Z,14.24
2022-09-01T03:35:22.753Z,14.24
2022-09-01T03:36:21.011Z,14.21
2022-09-01T03:37:20.983Z,14.24
2022-09-01T03:38:21.416Z,14.24
2022-09-01T03:39:20.970Z,14.21
2022-09-01T03:40:21.049Z,14.21
2022-09-01T03:41:20.978Z,14.21
2022-09-01T03:42:20.935Z,14.24
2022-09-01T03:43:23.570Z,14.24
2022-09-01T03:44:20.931Z,14.21
2022-09-01T03:45:20.938Z,14.21
2022-09-01T03:46:20.924Z,14.21
2022-09-01T03:47:20.892Z,14.21
2022-09-01T03:48:20.947Z,14.21
2022-09-01T03:49:20.904Z,14.21
2022-09-01T03:50:20.871Z,14.19
2022-09-01T03:51:20.879Z,14.19
2022-09-01T03:52:20.859Z,14.20
2022-09-01T03:53:20.837Z,14.21
2022-09-01T03:54:20.850Z,14.20
2022-09-01T03:55:20.826Z,14.21
2022-09-01T03:56:20.851Z,14.21
2022-09-01T03:57:20.811Z,14.21
2022-09-01T03:58:21.094Z,14.24
2022-09-01T03:59:20.788Z,14.24
2022-09-01T04:00:20.803Z,14.21
2022-09-01T04:01:20.808Z,14.19
2022-09-01T04:02:20.965Z,14.17
2022-09-01T04:03:20.739Z,14.17
2022-09-01T04:04:20.758Z,14.19
2022-09-01T04:05:20.745Z,14.19
2022-09-01T04:06:20.760Z,14.17
2022-09-01T04:07:22.480Z,14.16
2022-09-01T04:08:20.959Z,14.13
2022-09-01T04:09:20.680Z,14.14
2022-09-01T04:10:20.680Z,14.13
2022-09-01T04:11:20.674Z,14.13
2022-09-01T04:12:20.666Z,14.12
2022-09-01T04:13:20.668Z,14.10
2022-09-01T04:14:20.665Z,14.10
2022-09-01T04:15:20.669Z,14.09
2022-09-01T04:16:20.686Z,14.09
2022-09-01T04:17:20.610Z,14.10
2022-09-01T04:18:20.885Z,14.09
2022-09-01T04:19:21.035Z,14.10
2022-09-01T04:20:20.891Z,14.10
2022-09-01T04:21:20.579Z,14.10
2022-09-01T04:22:20.584Z,14.10
2022-09-01T04:23:20.562Z,14.12
2022-09-01T04:24:20.559Z,14.10
2022-09-01T04:25:20.497Z,14.10
2022-09-01T04:26:20.826Z,14.09
2022-09-01T04:27:20.482Z,14.09
2022-09-01T04:28:20.684Z,14.09
2022-09-01T04:29:20.511Z,14.10
2022-09-01T04:30:20.502Z,14.09
2022-09-01T04:31:20.614Z,14.07
2022-09-01T04:32:20.453Z,14.09
2022-09-01T04:33:20.432Z,14.09
2022-09-01T04:34:20.425Z,14.09
2022-09-01T04:35:20.476Z,14.09
2022-09-01T04:36:20.498Z,14.09
2022-09-01T04:37:20.438Z,14.09
2022-09-01T04:38:20.569Z,14.09
2022-09-01T04:39:20.387Z,14.07
2022-09-01T04:40:20.399Z,14.06
2022-09-01T04:41:20.384Z,14.06
2022-09-01T04:42:20.370Z,14.06
2022-09-01T04:43:20.328Z,14.02
2022-09-01T04:44:20.329Z,14.02
2022-09-01T04:45:20.892Z,14.02
2022-09-01T04:46:21.148Z,14.01
2022-09-01T04:47:20.291Z,13.98
2022-09-01T04:48:20.527Z,13.99
2022-09-01T04:49:20.279Z,13.99
2022-09-01T04:50:20.277Z,14.01
2022-09-01T04:51:20.272Z,13.99
2022-09-01T04:52:20.257Z,13.99
2022-09-01T04:53:20.242Z,13.98
2022-09-01T04:54:20.238Z,13.98
2022-09-01T04:55:20.224Z,13.96
2022-09-01T04:56:20.255Z,13.96
2022-09-01T04:57:20.205Z,13.95
2022-09-01T04:58:20.202Z,13.96
2022-09-01T04:59:20.189Z,13.98
2022-09-01T05:00:20.187Z,13.96
2022-09-01T05:01:20.263Z,13.96
2022-09-01T05:02:20.210Z,13.99
2022-09-01T05:03:20.153Z,14.01
2022-09-01T05:04:20.156Z,14.02
2022-09-01T05:05:20.147Z,14.07
2022-09-01T05:06:20.132Z,14.09
2022-09-01T05:07:20.149Z,14.10
2022-09-01T05:08:23.309Z,14.12
2022-09-01T05:09:20.129Z,14.13
2022-09-01T05:10:20.100Z,14.14
2022-09-01T05:11:20.114Z,14.17
2022-09-01T05:12:20.093Z,14.17
2022-09-01T05:13:20.092Z,14.16
2022-09-01T05:14:20.067Z,14.16
2022-09-01T05:15:20.070Z,14.17
2022-09-01T05:16:24.593Z,14.19
2022-09-01T05:17:20.079Z,14.20
2022-09-01T05:18:20.245Z,14.21
2022-09-01T05:19:20.013Z,14.19
2022-09-01T05:20:20.017Z,14.19
2022-09-01T05:21:19.994Z,14.19
2022-09-01T05:22:19.999Z,14.20
2022-09-01T05:23:19.979Z,14.20
2022-09-01T05:24:19.972Z,14.24
2022-09-01T05:25:19.961Z,14.24
2022-09-01T05:26:19.993Z,14.21
2022-09-01T05:27:19.957Z,14.25
2022-09-01T05:28:20.124Z,14.28
2022-09-01T05:29:19.923Z,14.27
2022-09-01T05:30:19.926Z,14.27
2022-09-01T05:31:20.121Z,14.28
2022-09-01T05:32:19.916Z,14.27
2022-09-01T05:33:21.809Z,14.29
2022-09-01T05:34:19.884Z,14.31
2022-09-01T05:35:19.871Z,14.31
2022-09-01T05:36:19.875Z,14.31
2022-09-01T05:37:19.865Z,14.31
2022-09-01T05:38:20.097Z,14.32
2022-09-01T05:39:19.845Z,14.32
2022-09-01T05:40:19.880Z,14.34
2022-09-01T05:41:19.827Z,14.37
2022-09-01T05:42:19.822Z,14.39
2022-09-01T05:43:19.829Z,14.42
2022-09-01T05:44:19.798Z,14.43
2022-09-01T05:45:19.780Z,14.44
2022-09-01T05:46:19.832Z,14.44
2022-09-01T05:47:20.499Z,14.44
2022-09-01T05:48:20.022Z,14.44
2022-09-01T05:49:19.745Z,14.43
2022-09-01T05:50:19.743Z,14.44
2022-09-01T05:51:42.566Z,14.42
2022-09-01T05:52:19.757Z,14.42
2022-09-01T05:53:20.136Z,14.43
2022-09-01T05:54:19.728Z,14.43
2022-09-01T05:55:19.702Z,14.44
2022-09-01T05:56:19.708Z,14.46
2022-09-01T05:57:33.906Z,14.47
2022-09-01T05:58:19.780Z,14.49
2022-09-01T05:59:23.793Z,14.52
2022-09-01T06:00:19.656Z,14.53
2022-09-01T06:01:19.639Z,14.57
2022-09-01T06:02:19.752Z,14.61
2022-09-01T06:03:20.021Z,14.65
2022-09-01T06:04:19.626Z,14.69
2022-09-01T06:05:19.600Z,14.72
2022-09-01T06:06:19.597Z,14.74
2022-09-01T06:07:25.331Z,14.75
2022-09-01T06:08:19.584Z,14.81
2022-09-01T06:09:19.569Z,14.86
2022-09-01T06:10:19.576Z,14.90
2022-09-01T06:11:19.553Z,14.94
2022-09-01T06:12:19.555Z,14.98
2022-09-01T06:13:19.723Z,15.01
2022-09-01T06:14:19.527Z,15.03
2022-09-01T06:15:19.534Z,15.03
2022-09-01T06:16:19.569Z,15.05
2022-09-01T06:17:19.527Z,15.05
2022-09-01T06:18:19.495Z,15.06
2022-09-01T06:19:19.739Z,15.11
2022-09-01T06:20:19.500Z,15.11
2022-09-01T06:21:19.476Z,15.11
2022-09-01T06:22:19.485Z,15.08
2022-09-01T06:23:19.657Z,15.09
2022-09-01T06:24:19.457Z,15.08
2022-09-01T06:25:19.423Z,15.08
2022-09-01T06:26:19.431Z,15.09
2022-09-01T06:27:19.405Z,15.11
2022-09-01T06:28:19.402Z,15.12
2022-09-01T06:29:19.421Z,15.11
2022-09-01T06:30:23.466Z,15.13
2022-09-01T06:31:19.465Z,15.15
2022-09-01T06:32:19.368Z,15.19
2022-09-01T06:33:19.488Z,15.17
2022-09-01T06:34:19.349Z,15.17
2022-09-01T06:35:19.335Z,15.15
2022-09-01T06:36:19.343Z,15.17
2022-09-01T06:37:19.322Z,15.19
2022-09-01T06:38:19.342Z,15.23
2022-09-01T06:39:19.304Z,15.26
2022-09-01T06:40:19.387Z,15.23
2022-09-01T06:41:19.342Z,15.21
2022-09-01T06:42:19.276Z,15.21
2022-09-01T06:43:19.536Z,15.24
2022-09-01T06:44:19.260Z,15.13
2022-09-01T06:45:19.247Z,15.06
2022-09-01T06:46:19.317Z,15.02
2022-09-01T06:47:19.245Z,15.05
2022-09-01T06:48:19.228Z,15.09
2022-09-01T06:49:19.230Z,15.17
2022-09-01T06:51:14.509Z,15.23
2022-09-01T06:51:21.853Z,15.27
2022-09-01T06:52:19.207Z,15.31
2022-09-01T06:53:35.302Z,15.36
2022-09-01T06:54:21.064Z,15.35
2022-09-01T06:55:19.162Z,15.31
2022-09-01T06:56:19.173Z,15.30
2022-09-01T06:58:21.424Z,15.26
2022-09-01T06:59:19.129Z,15.24
2022-09-01T07:00:19.484Z,15.26
2022-09-01T07:01:19.165Z,15.28
2022-09-01T07:02:19.166Z,15.30
2022-09-01T07:03:19.191Z,15.35
2022-09-01T07:04:19.077Z,15.39
2022-09-01T07:08:19.221Z,15.67
2022-09-01T07:09:20.118Z,15.68
2022-09-01T07:10:21.234Z,15.68
2022-09-01T07:11:19.966Z,15.54
2022-09-01T07:12:26.481Z,15.38
2022-09-01T07:13:19.019Z,15.24
2022-09-01T07:14:18.987Z,15.11
2022-09-01T07:16:31.893Z,14.98
2022-09-01T07:16:40.447Z,14.87
2022-09-01T07:17:26.091Z,14.83
2022-09-01T07:18:19.035Z,14.72
2022-09-01T07:19:18.952Z,14.69
2022-09-01T07:20:26.169Z,14.68
2022-09-01T07:23:18.971Z,14.60
2022-09-01T07:24:18.901Z,14.61
2022-09-01T07:25:18.914Z,14.62
2022-09-01T07:26:24.676Z,14.64
2022-09-01T07:27:18.883Z,14.67
2022-09-01T07:28:19.066Z,14.72
2022-09-01T07:29:18.864Z,14.75
2022-09-01T07:30:18.847Z,14.78
2022-09-01T07:35:18.822Z,14.98
2022-09-01T07:36:26.839Z,15.09
2022-09-01T07:43:18.953Z,15.74
2022-09-01T07:44:18.732Z,15.78
2022-09-01T07:45:26.820Z,15.81
2022-09-01T07:47:19.863Z,15.86
2022-09-01T07:50:07.962Z,15.93
2022-09-01T07:50:40.174Z,15.97
2022-09-01T07:52:22.691Z,15.94
2022-09-01T07:53:18.818Z,15.88
2022-09-01T07:54:18.649Z,15.86
2022-09-01T07:55:18.629Z,15.94
2022-09-01T07:56:18.617Z,15.99
2022-09-01T07:57:18.611Z,16.07
2022-09-01T07:58:18.613Z,16.15
2022-09-01T07:59:18.622Z,16.25
2022-09-01T08:00:18.575Z,16.37
2022-09-01T08:01:18.601Z,16.48
2022-09-01T08:02:18.669Z,16.60
2022-09-01T08:03:18.743Z,16.68
2022-09-01T08:04:18.566Z,16.77
2022-09-01T08:05:18.550Z,16.85
2022-09-01T08:06:18.527Z,16.88
2022-09-01T08:07:18.550Z,16.95
2022-09-01T08:08:18.944Z,16.96
2022-09-01T08:09:32.957Z,16.96
2022-09-01T08:10:20.147Z,16.98
2022-09-01T08:11:25.250Z,16.95
2022-09-01T08:12:18.481Z,16.96
2022-09-01T08:13:20.806Z,16.96
2022-09-01T08:14:18.508Z,17.03
2022-09-01T08:16:18.761Z,17.11
2022-09-01T08:17:34.066Z,17.14
2022-09-01T08:18:18.550Z,17.11
2022-09-01T08:19:18.415Z,17.11
2022-09-01T08:20:18.486Z,17.08
2022-09-01T08:21:18.404Z,17.06
2022-09-01T08:22:18.395Z,17.06
2022-09-01T08:23:18.381Z,17.00
2022-09-01T08:24:18.362Z,16.96
2022-09-01T08:25:21.811Z,16.99
2022-09-01T08:26:18.358Z,17.04
2022-09-01T08:27:18.345Z,17.04
2022-09-01T08:28:26.585Z,17.03
2022-09-01T08:29:18.333Z,17.06
2022-09-01T08:30:18.333Z,17.13
2022-09-01T08:31:18.381Z,17.13
2022-09-01T08:32:18.291Z,17.15
2022-09-01T08:33:18.288Z,17.13
2022-09-01T08:34:18.277Z,17.04
2022-09-01T08:35:18.281Z,17.04
2022-09-01T08:36:23.485Z,16.99
2022-09-01T08:37:18.264Z,17.03
2022-09-01T08:38:18.341Z,16.99
2022-09-01T08:39:18.238Z,16.95
2022-09-01T08:40:18.315Z,16.92
2022-09-01T08:41:18.259Z,16.92
2022-09-01T08:42:18.209Z,16.90
2022-09-01T08:43:18.349Z,16.88
2022-09-01T08:44:18.253Z,16.83
2022-09-01T08:45:18.187Z,16.75
2022-09-01T08:46:18.234Z,16.74
2022-09-01T08:47:28.688Z,16.73
2022-09-01T08:49:25.347Z,16.73
2022-09-01T08:50:18.217Z,16.78
2022-09-01T08:51:20.728Z,16.75
2022-09-01T08:52:18.131Z,16.73
2022-09-01T08:53:18.108Z,16.68
2022-09-01T08:54:18.102Z,16.58
2022-09-01T08:55:18.101Z,16.55
2022-09-01T08:56:18.079Z,16.53
2022-09-01T08:57:18.089Z,16.59
2022-09-01T08:58:18.199Z,16.67
2022-09-01T08:59:18.064Z,16.68
2022-09-01T09:00:18.052Z,16.74
2022-09-01T09:01:18.062Z,16.71
2022-09-01T09:02:18.067Z,16.67
2022-09-01T09:03:18.099Z,16.70
2022-09-01T09:04:18.011Z,16.75
2022-09-01T09:05:18.005Z,16.85
2022-09-01T09:06:17.989Z,16.95
2022-09-01T09:07:17.996Z,16.99
2022-09-01T09:08:17.974Z,17.06
2022-09-01T09:09:18.164Z,17.13
2022-09-01T09:10:17.961Z,17.17
2022-09-01T09:11:17.950Z,17.22
2022-09-01T09:12:18.227Z,17.26
2022-09-01T09:13:17.988Z,17.28
2022-09-01T09:14:17.920Z,17.28
2022-09-01T09:15:17.921Z,17.30
2022-09-01T09:16:17.926Z,17.35
2022-09-01T09:17:17.911Z,17.38
2022-09-01T09:18:34.463Z,17.43
2022-09-01T09:19:17.908Z,17.40
2022-09-01T09:20:17.868Z,17.38
2022-09-01T09:21:17.874Z,17.33
2022-09-01T09:22:17.886Z,17.29
2022-09-01T09:23:18.341Z,17.20
2022-09-01T09:24:21.711Z,17.08
2022-09-01T09:25:19.306Z,16.99
2022-09-01T09:26:22.233Z,16.90
2022-09-01T09:27:17.848Z,16.81
2022-09-01T09:28:17.828Z,16.78
2022-09-01T09:29:17.816Z,16.81
2022-09-01T09:30:21.445Z,16.85
2022-09-01T09:31:18.633Z,16.90
2022-09-01T09:32:35.497Z,16.95
2022-09-01T09:33:47.621Z,16.96
2022-09-01T09:34:17.758Z,17.06
2022-09-01T09:35:18.121Z,17.15
2022-09-01T09:36:17.757Z,17.23
2022-09-01T09:37:17.754Z,17.32
2022-09-01T09:38:17.770Z,17.38
2022-09-01T09:39:17.726Z,17.46
2022-09-01T09:40:18.282Z,17.53
2022-09-01T09:41:20.291Z,17.63
2022-09-01T09:42:18.039Z,17.71
2022-09-01T09:43:18.717Z,17.74
2022-09-01T09:44:17.736Z,17.78
2022-09-01T09:45:17.688Z,17.76
2022-09-01T09:46:25.547Z,17.78
2022-09-01T09:47:42.323Z,17.79
2022-09-01T09:48:19.448Z,17.81
2022-09-01T09:49:17.649Z,17.88
2022-09-01T09:50:17.985Z,17.91
2022-09-01T09:51:20.878Z,17.92
2022-09-01T09:52:17.636Z,17.97
2022-09-01T09:53:17.699Z,17.99
2022-09-01T09:54:19.446Z,17.97
2022-09-01T09:55:18.457Z,17.94
2022-09-01T09:56:20.304Z,17.91
2022-09-01T09:57:17.602Z,17.92
2022-09-01T09:58:19.404Z,17.94
2022-09-01T09:59:29.229Z,17.92
2022-09-01T10:00:25.979Z,17.95
2022-09-01T10:01:26.146Z,17.95
2022-09-01T10:02:17.572Z,17.99
2022-09-01T10:03:17.535Z,18.02
2022-09-01T10:04:17.521Z,18.04
2022-09-01T10:05:17.524Z,18.09
2022-09-01T10:06:17.840Z,18.15
2022-09-01T10:07:17.509Z,18.17
2022-09-01T10:08:17.488Z,18.24
2022-09-01T10:09:17.444Z,18.33
2022-09-01T10:10:17.496Z,18.42
2022-09-01T10:11:17.471Z,18.50
2022-09-01T10:12:17.443Z,18.57
2022-09-01T10:13:17.469Z,18.65
2022-09-01T10:15:33.528Z,18.83
2022-09-01T10:18:31.271Z,18.83
2022-09-01T10:21:18.488Z,19.10
2022-09-01T10:22:18.610Z,19.06
2022-09-01T10:23:18.587Z,19.05
2022-09-01T10:24:21.191Z,19.13
2022-09-01T10:25:21.369Z,19.20
2022-09-01T10:26:18.869Z,19.20
2022-09-01T10:27:18.491Z,19.18
2022-09-01T10:28:21.615Z,19.20
2022-09-01T10:29:18.461Z,19.23
2022-09-01T10:30:19.807Z,19.24
2022-09-01T10:31:18.484Z,19.23
2022-09-01T10:32:35.001Z,19.18
2022-09-01T10:33:20.759Z,19.21
2022-09-01T10:34:19.869Z,19.20
2022-09-01T10:35:18.510Z,19.14
2022-09-01T10:36:18.386Z,19.11
2022-09-01T10:37:18.388Z,19.06
2022-09-01T10:38:18.463Z,19.02
2022-09-01T10:39:21.974Z,19.06
2022-09-01T10:40:20.612Z,19.10
2022-09-01T10:41:18.446Z,19.10
2022-09-01T10:42:19.542Z,19.06
2022-09-01T10:43:18.368Z,19.08
2022-09-01T10:44:19.316Z,19.15
2022-09-01T10:45:18.350Z,19.17
2022-09-01T10:46:18.792Z,19.23
2022-09-01T10:47:18.344Z,19.31
2022-09-01T10:48:29.804Z,19.33
2022-09-01T10:49:18.285Z,19.38
2022-09-01T10:50:18.313Z,19.43
2022-09-01T10:51:18.808Z,19.51
2022-09-01T10:52:18.263Z,19.50
2022-09-01T10:53:18.256Z,19.53
2022-09-01T10:54:18.281Z,19.61
2022-09-01T10:55:24.766Z,19.72
2022-09-01T10:56:23.631Z,19.75
2022-09-01T10:57:18.284Z,19.75
2022-09-01T10:59:37.611Z,19.70
2022-09-01T11:01:40.532Z,19.32
2022-09-01T11:02:27.501Z,19.13
2022-09-01T11:03:40.884Z,18.95
2022-09-01T11:04:18.229Z,18.86
2022-09-01T11:05:18.208Z,18.74
2022-09-01T11:06:18.132Z,18.55
2022-09-01T11:07:26.857Z,18.43
2022-09-01T11:08:18.106Z,18.31
2022-09-01T11:09:18.112Z,18.31
2022-09-01T11:10:31.838Z,18.36
2022-09-01T11:11:18.096Z,18.37
2022-09-01T11:12:18.079Z,18.27
2022-09-01T11:13:19.055Z,18.28
2022-09-01T11:14:18.076Z,18.33
2022-09-01T11:15:18.037Z,18.36
2022-09-01T11:16:45.917Z,18.39
2022-09-01T11:17:18.048Z,18.43
2022-09-01T11:18:19.399Z,18.52
2022-09-01T11:19:18.016Z,18.61
2022-09-01T11:20:18.440Z,18.74
2022-09-01T11:21:18.028Z,18.80
2022-09-01T11:22:18.004Z,18.84
2022-09-01T11:23:17.961Z,18.91
2022-09-01T11:24:17.981Z,18.91
2022-09-01T11:25:17.942Z,18.90
2022-09-01T11:26:19.562Z,18.86
2022-09-01T11:27:17.962Z,18.95
2022-09-01T11:28:18.334Z,19.01
2022-09-01T11:29:17.919Z,19.10
2022-09-01T11:30:17.903Z,19.20
2022-09-01T11:31:17.959Z,19.28
2022-09-01T11:32:18.726Z,19.36
2022-09-01T11:33:18.580Z,19.46
2022-09-01T11:34:17.868Z,19.48
2022-09-01T11:35:17.881Z,19.50
2022-09-01T11:36:17.876Z,19.47
2022-09-01T11:37:17.831Z,19.43
2022-09-01T11:38:17.886Z,19.42
2022-09-01T11:39:17.851Z,19.42
2022-09-01T11:40:17.931Z,19.31
2022-09-01T11:41:17.812Z,19.24
2022-09-01T11:42:17.803Z,19.25
2022-09-01T11:43:17.850Z,19.36
2022-09-01T11:44:17.778Z,19.42
2022-09-01T11:45:21.688Z,19.50
2022-09-01T11:46:17.882Z,19.60
2022-09-01T11:47:17.762Z,19.58
2022-09-01T11:48:17.745Z,19.47
2022-09-01T11:49:17.722Z,19.35
2022-09-01T11:50:17.756Z,19.31
2022-09-01T11:51:17.737Z,19.29
2022-09-01T11:52:17.732Z,19.29
2022-09-01T11:53:17.756Z,19.31
2022-09-01T11:54:17.693Z,19.31
2022-09-01T11:55:17.704Z,19.25
2022-09-01T11:56:30.071Z,19.25
2022-09-01T11:58:06.519Z,19.25
2022-09-01T11:58:18.094Z,19.21
2022-09-01T11:59:17.650Z,19.24
2022-09-01T12:00:17.663Z,19.13
2022-09-01T12:01:17.652Z,19.02
2022-09-01T12:02:17.710Z,18.98
2022-09-01T12:03:17.819Z,19.06
2022-09-01T12:04:17.602Z,19.14
2022-09-01T12:05:17.595Z,19.21
2022-09-01T12:06:17.589Z,19.24
2022-09-01T12:07:18.563Z,19.23
2022-09-01T12:08:17.546Z,19.17
2022-09-01T12:09:17.549Z,19.11
2022-09-01T12:10:17.537Z,19.17
2022-09-01T12:11:17.543Z,19.21
2022-09-01T12:12:17.552Z,19.15
2022-09-01T12:13:17.568Z,19.20
2022-09-01T12:14:17.516Z,19.20
2022-09-01T12:15:17.491Z,19.17
2022-09-01T12:16:18.916Z,19.18
2022-09-01T12:17:17.530Z,19.24
2022-09-01T12:18:17.519Z,19.25
2022-09-01T12:19:17.506Z,19.24
2022-09-01T12:20:17.513Z,19.23
2022-09-01T12:21:17.513Z,19.15
2022-09-01T12:22:17.508Z,19.08
2022-09-01T12:23:17.583Z,19.05
2022-09-01T12:24:17.507Z,18.99
2022-09-01T12:25:17.434Z,18.94
2022-09-01T12:26:20.662Z,18.92
2022-09-01T12:27:17.398Z,18.92
2022-09-01T12:28:17.393Z,18.91
2022-09-01T12:29:17.367Z,18.94
2022-09-01T12:30:17.345Z,19.05
2022-09-01T12:31:17.356Z,19.17
2022-09-01T12:32:17.383Z,19.28
2022-09-01T12:33:24.665Z,19.31
2022-09-01T12:34:17.334Z,19.33
2022-09-01T12:35:17.313Z,19.36
2022-09-01T12:36:17.334Z,19.39
2022-09-01T12:37:17.314Z,19.40
2022-09-01T12:38:17.274Z,19.38
2022-09-01T12:39:17.285Z,19.33
2022-09-01T12:40:17.301Z,19.28
2022-09-01T12:41:17.334Z,19.20
2022-09-01T12:42:17.253Z,19.17
2022-09-01T12:43:17.262Z,19.17
2022-09-01T12:44:17.224Z,19.21
2022-09-01T12:45:17.249Z,19.24
2022-09-01T12:46:17.577Z,19.21
2022-09-01T12:47:17.210Z,19.21
2022-09-01T12:48:17.194Z,19.15
2022-09-01T12:49:17.202Z,19.17
2022-09-01T12:50:17.241Z,19.14
2022-09-01T12:51:17.186Z,19.17
2022-09-01T12:52:20.039Z,19.18
2022-09-01T12:53:17.145Z,19.17
2022-09-01T12:54:17.142Z,19.18
2022-09-01T12:56:25.729Z,19.24
2022-09-01T12:57:17.113Z,19.25
2022-09-01T12:58:17.107Z,19.25
2022-09-01T12:59:19.218Z,19.29
2022-09-01T13:00:17.075Z,19.38
2022-09-01T13:01:17.266Z,19.39
2022-09-01T13:02:17.219Z,19.40
2022-09-01T13:03:17.049Z,19.43
2022-09-01T13:04:17.051Z,19.55
2022-09-01T13:05:17.039Z,19.58
2022-09-01T13:06:17.023Z,19.63
2022-09-01T13:07:17.994Z,19.66
2022-09-01T13:08:17.046Z,19.72
2022-09-01T13:09:16.995Z,19.79
2022-09-01T13:10:16.984Z,19.80
2022-09-01T13:11:16.990Z,19.84
2022-09-01T13:12:16.974Z,19.84
2022-09-01T13:13:17.021Z,19.88
2022-09-01T13:14:16.946Z,19.90
2022-09-01T13:15:16.939Z,19.86
2022-09-01T13:16:16.987Z,19.88
2022-09-01T13:17:16.920Z,19.93
2022-09-01T13:18:17.000Z,19.88
2022-09-01T13:19:26.537Z,19.83
2022-09-01T13:20:16.899Z,19.88
2022-09-01T13:21:16.901Z,19.80
2022-09-01T13:22:16.878Z,19.80
2022-09-01T13:23:16.874Z,19.90